Time;durP1;ratioP1;P1;durP2;ratioP2;P2;SDS_P1;SDS_P2;PMS_P1;PMS_P2;Temp;Humidity;BMP_temperature;BMP_pressure;BME280_temperature;BME280_humidity;BME280_pressure;Samples;Min_cycle;Max_cycle;Signal;HPM_P1;HPM_P2
2023/07/08 00:01:57;;;;;;;16.88;8.43;;;;;;;18.57;77.54;95995.22;5015736;28;25020;-75
2023/07/08 00:04:23;;;;;;;13.18;7.90;;;;;;;18.53;78.72;95992.03;5020141;28;24490;-76
2023/07/08 00:06:50;;;;;;;10.63;7.75;;;;;;;18.44;79.74;95992.06;5018735;28;24958;-75
2023/07/08 00:09:18;;;;;;;14.52;8.02;;;;;;;18.34;79.14;95994.69;5022273;28;24980;-76
2023/07/08 00:11:44;;;;;;;11.73;8.43;;;;;;;18.25;79.26;95988.50;5021968;28;24456;-75
2023/07/08 00:14:10;;;;;;;12.82;8.13;;;;;;;18.20;81.36;95980.19;5027305;28;24448;-76
2023/07/08 00:16:37;;;;;;;15.48;9.02;;;;;;;18.06;82.31;95989.31;5056474;23;24467;-78
2023/07/08 00:19:09;;;;;;;11.75;8.40;;;;;;;18.01;82.48;95986.25;5043671;28;24439;-78
2023/07/08 00:21:36;;;;;;;12.15;7.47;;;;;;;18.04;81.55;95985.97;5042260;28;24440;-78
2023/07/08 00:24:02;;;;;;;11.77;7.38;;;;;;;18.14;79.97;95986.81;5046027;28;24439;-77
2023/07/08 00:26:32;;;;;;;13.27;7.15;;;;;;;18.20;79.33;95987.22;5038232;28;24442;-77
2023/07/08 00:28:59;;;;;;;8.93;7.10;;;;;;;18.26;79.97;95981.44;5030321;28;24436;-77
2023/07/08 00:31:26;;;;;;;11.53;7.20;;;;;;;18.32;80.54;95986.16;5024375;28;25160;-78
2023/07/08 00:33:55;;;;;;;10.68;7.38;;;;;;;18.31;79.80;95987.09;5031205;28;24440;-78
2023/07/08 00:36:23;;;;;;;7.68;6.50;;;;;;;18.32;80.15;95991.38;5031466;28;24848;-77
2023/07/08 00:38:49;;;;;;;11.18;6.35;;;;;;;18.43;79.49;95988.63;5034473;28;24444;-77
2023/07/08 00:41:21;;;;;;;9.50;6.68;;;;;;;18.43;78.57;95991.25;5024684;28;25039;-77
2023/07/08 00:43:51;;;;;;;9.07;6.40;;;;;;;18.48;77.96;95989.03;5032014;28;24474;-78
2023/07/08 00:46:29;;;;;;;10.40;6.53;;;;;;;18.56;77.91;95991.75;5033219;28;25005;-78
2023/07/08 00:49:01;;;;;;;6.82;6.13;;;;;;;18.45;78.98;95988.47;5030648;28;24566;-78
2023/07/08 00:51:27;;;;;;;8.82;6.80;;;;;;;18.34;79.83;95982.41;5029327;28;24456;-77
2023/07/08 00:53:53;;;;;;;7.57;6.00;;;;;;;18.33;80.73;95986.00;5027799;28;24436;-77
2023/07/08 00:56:24;;;;;;;9.13;6.72;;;;;;;18.10;82.07;95985.44;5032469;28;24435;-78
2023/07/08 00:58:57;;;;;;;10.75;6.45;;;;;;;18.13;82.61;95985.19;5030471;28;25003;-77
2023/07/08 01:01:24;;;;;;;7.75;6.65;;;;;;;17.93;84.87;95991.34;5029327;28;24450;-78
2023/07/08 01:03:55;;;;;;;9.00;6.43;;;;;;;17.81;85.21;95990.66;5033928;28;24441;-78
2023/07/08 01:06:31;;;;;;;8.52;6.20;;;;;;;17.72;87.04;95991.41;5031230;28;24447;-77
2023/07/08 01:08:59;;;;;;;10.70;6.50;;;;;;;17.75;86.63;95992.94;5028343;28;25146;-78
2023/07/08 01:11:25;;;;;;;12.55;7.03;;;;;;;17.60;87.41;95988.09;5030737;28;24444;-78
2023/07/08 01:13:53;;;;;;;12.27;6.82;;;;;;;17.50;87.99;95984.63;5040130;28;24435;-78
2023/07/08 01:16:20;;;;;;;8.82;6.05;;;;;;;17.51;87.56;95993.31;5037868;28;24458;-78
2023/07/08 01:18:52;;;;;;;10.73;6.20;;;;;;;17.58;86.82;95986.59;5035162;28;24447;-78
2023/07/08 01:21:38;;;;;;;9.50;6.65;;;;;;;17.58;86.72;95983.97;5027827;28;24454;-78
2023/07/08 01:24:10;;;;;;;9.05;6.75;;;;;;;17.54;86.88;95982.53;5029570;28;24437;-77
2023/07/08 01:26:40;;;;;;;10.90;6.87;;;;;;;17.55;87.38;95982.44;5023601;28;24452;-78
2023/07/08 01:29:07;;;;;;;8.75;6.43;;;;;;;17.50;87.17;95984.63;5036331;28;24435;-77
2023/07/08 01:31:34;;;;;;;11.10;6.80;;;;;;;17.60;86.23;95984.63;5027099;28;24487;-77
2023/07/08 01:34:00;;;;;;;9.40;6.40;;;;;;;17.50;86.65;95983.78;5027357;28;24790;-78
2023/07/08 01:36:32;;;;;;;8.05;6.25;;;;;;;17.51;86.92;95986.28;5026151;28;24448;-77
2023/07/08 01:38:58;;;;;;;8.35;6.45;;;;;;;17.57;85.15;95983.09;5028862;28;24841;-78
2023/07/08 01:41:26;;;;;;;8.98;5.85;;;;;;;17.63;85.59;95982.59;5027615;28;24876;-77
2023/07/08 01:43:53;;;;;;;9.65;6.28;;;;;;;17.52;87.74;95980.06;5033962;28;24452;-78
2023/07/08 01:46:24;;;;;;;8.10;6.53;;;;;;;17.34;90.42;95981.66;5026225;28;25017;-77
2023/07/08 01:48:54;;;;;;;9.13;6.60;;;;;;;17.18;91.08;95982.16;5030405;28;24439;-78
2023/07/08 01:51:21;;;;;;;9.40;6.90;;;;;;;16.86;94.17;95971.81;5032673;28;24430;-77
2023/07/08 01:53:48;;;;;;;10.80;6.90;;;;;;;16.57;97.17;95976.84;5028305;28;24509;-78
2023/07/08 01:56:15;;;;;;;12.13;7.72;;;;;;;16.48;97.32;95978.44;5027925;28;24432;-78
2023/07/08 01:58:43;;;;;;;10.57;7.47;;;;;;;16.31;100.00;95985.06;5028198;28;24440;-77
2023/07/08 02:01:10;;;;;;;10.02;7.10;;;;;;;16.42;99.36;95978.94;5030497;28;24452;-78
2023/07/08 02:03:37;;;;;;;10.57;6.88;;;;;;;16.53;98.16;95981.50;5025767;28;24446;-77
2023/07/08 02:06:04;;;;;;;10.25;6.97;;;;;;;16.69;97.43;95981.06;5024413;28;24452;-78
2023/07/08 02:08:30;;;;;;;8.77;6.60;;;;;;;16.91;95.39;95985.34;5023637;28;25005;-78
2023/07/08 02:10:59;;;;;;;8.60;6.65;;;;;;;17.06;94.17;95988.47;5026044;28;24443;-78
2023/07/08 02:13:26;;;;;;;14.23;7.00;;;;;;;17.20;93.12;95989.88;5024579;28;24463;-78
2023/07/08 02:15:54;;;;;;;9.82;6.90;;;;;;;17.16;92.19;95994.53;5031118;28;24471;-77
2023/07/08 02:18:20;;;;;;;20.80;6.82;;;;;;;17.24;92.45;95993.88;5028319;28;24443;-78
2023/07/08 02:20:47;;;;;;;8.23;6.57;;;;;;;17.32;91.00;95984.44;5024205;28;24840;-77
2023/07/08 02:23:14;;;;;;;12.70;6.90;;;;;;;17.40;90.21;95992.44;5034586;28;24436;-77
2023/07/08 02:25:40;;;;;;;10.50;6.68;;;;;;;17.42;88.78;95997.53;5030458;28;24451;-78
2023/07/08 02:28:07;;;;;;;10.10;6.63;;;;;;;17.50;88.58;95999.50;5028334;28;24493;-78
2023/07/08 02:30:33;;;;;;;8.90;6.82;;;;;;;17.53;88.41;95994.81;5024404;28;24999;-77
2023/07/08 02:33:01;;;;;;;8.40;6.60;;;;;;;17.45;89.29;96002.50;5015831;28;24997;-77
2023/07/08 02:35:30;;;;;;;9.35;6.63;;;;;;;17.37;90.10;96004.97;5031498;28;25016;-77
2023/07/08 02:37:58;;;;;;;10.30;7.05;;;;;;;17.25;91.27;96003.41;5027889;28;24442;-78
2023/07/08 02:40:25;;;;;;;7.38;6.25;;;;;;;17.25;91.10;95998.19;5022877;28;24806;-77
2023/07/08 02:42:52;;;;;;;9.80;6.17;;;;;;;17.16;92.21;95998.00;5021989;28;24463;-77
2023/07/08 02:45:18;;;;;;;8.60;6.50;;;;;;;17.17;91.78;96002.28;5025386;28;24444;-77
2023/07/08 02:47:45;;;;;;;7.00;6.28;;;;;;;17.26;89.66;96005.91;5024478;28;24431;-77
2023/07/08 02:50:13;;;;;;;10.13;6.97;;;;;;;17.25;88.86;96011.28;5027267;28;24438;-77
2023/07/08 02:52:39;;;;;;;11.18;7.20;;;;;;;17.25;88.28;96009.47;5026132;28;24861;-77
2023/07/08 02:55:07;;;;;;;10.13;6.95;;;;;;;17.35;88.28;96007.72;5031496;28;24447;-77
2023/07/08 02:57:33;;;;;;;9.18;6.97;;;;;;;17.30;88.21;96007.28;5029798;28;24435;-77
2023/07/08 03:00:00;;;;;;;8.82;6.72;;;;;;;17.30;88.11;96014.31;5024507;28;24787;-78
2023/07/08 03:02:27;;;;;;;13.23;7.10;;;;;;;17.06;89.35;96004.97;5025000;28;24436;-77
2023/07/08 03:04:54;;;;;;;12.40;7.07;;;;;;;16.93;91.19;96004.34;5022874;28;24440;-77
2023/07/08 03:07:21;;;;;;;9.93;6.93;;;;;;;17.00;90.62;96021.19;5024613;28;24454;-77
2023/07/08 03:09:48;;;;;;;10.48;7.18;;;;;;;16.98;90.67;96010.00;5020997;28;24475;-77
2023/07/08 03:12:14;;;;;;;10.68;6.47;;;;;;;16.80;92.16;96011.59;5031577;28;24447;-77
2023/07/08 03:14:41;;;;;;;11.70;6.90;;;;;;;16.74;93.63;96004.25;5019997;28;24444;-77
2023/07/08 03:17:07;;;;;;;9.48;6.88;;;;;;;16.43;96.82;95994.53;5022643;28;24825;-77
2023/07/08 03:19:34;;;;;;;9.85;7.18;;;;;;;16.29;98.22;96002.66;5025196;28;24442;-77
2023/07/08 03:22:02;;;;;;;11.63;7.00;;;;;;;16.29;98.63;95983.56;5018402;28;24623;-78
2023/07/08 03:24:31;;;;;;;15.23;8.80;;;;;;;16.23;98.90;95989.25;5023417;28;24530;-77
2023/07/08 03:27:00;;;;;;;20.33;9.43;;;;;;;16.08;100.00;95986.94;5027754;28;24446;-77
2023/07/08 03:29:26;;;;;;;11.35;8.43;;;;;;;16.06;100.00;95991.47;5028302;28;24442;-77
2023/07/08 03:31:53;;;;;;;13.85;8.70;;;;;;;16.04;100.00;95993.38;5021386;28;24463;-78
2023/07/08 03:34:19;;;;;;;13.33;8.50;;;;;;;16.18;100.00;95987.03;5028636;28;25327;-78
2023/07/08 03:36:49;;;;;;;11.07;7.78;;;;;;;16.28;99.55;96000.16;5030289;28;24447;-77
2023/07/08 03:39:16;;;;;;;12.13;8.45;;;;;;;16.29;99.45;96001.84;5025784;28;24492;-77
2023/07/08 03:41:45;;;;;;;12.13;8.20;;;;;;;16.33;99.38;96004.06;5020962;28;24443;-76
2023/07/08 03:44:12;;;;;;;8.77;6.43;;;;;;;16.35;98.88;96004.78;5026908;28;24440;-77
2023/07/08 03:46:38;;;;;;;10.82;7.90;;;;;;;16.07;100.00;96000.97;5030514;28;24444;-79
2023/07/08 03:49:05;;;;;;;11.95;6.85;;;;;;;16.24;100.00;96009.22;5028842;28;24987;-80
2023/07/08 03:51:34;;;;;;;8.73;6.93;;;;;;;16.31;99.97;96012.97;5028809;28;24442;-80
2023/07/08 03:54:00;;;;;;;11.97;7.00;;;;;;;16.21;99.75;96008.53;5020415;28;25165;-80
2023/07/08 03:56:27;;;;;;;10.23;7.05;;;;;;;16.10;100.00;96024.25;5028868;28;24451;-80
2023/07/08 03:58:54;;;;;;;8.32;7.47;;;;;;;15.93;100.00;96015.13;5033796;28;24435;-79
2023/07/08 04:01:24;;;;;;;8.38;6.72;;;;;;;15.82;100.00;96009.13;5037308;28;25013;-80
2023/07/08 04:03:52;;;;;;;11.82;7.85;;;;;;;15.77;100.00;96009.50;5033037;28;24432;-81
2023/07/08 04:06:19;;;;;;;9.45;6.95;;;;;;;15.85;100.00;96009.69;5041716;28;24444;-78
2023/07/08 04:08:46;;;;;;;12.10;7.03;;;;;;;16.10;100.00;96005.94;5034383;28;24444;-71
2023/07/08 04:11:13;;;;;;;12.38;7.10;;;;;;;16.24;100.00;95998.75;5032228;28;24485;-77
2023/07/08 04:13:40;;;;;;;9.48;7.32;;;;;;;16.29;100.00;96001.84;5027560;28;25000;-78
2023/07/08 04:16:11;;;;;;;10.60;7.80;;;;;;;16.27;100.00;96003.75;5033739;28;24451;-77
2023/07/08 04:18:38;;;;;;;9.88;6.97;;;;;;;16.20;100.00;96000.78;5024700;28;25057;-78
2023/07/08 04:21:04;;;;;;;8.30;6.70;;;;;;;16.31;100.00;96005.16;5030000;28;24965;-77
2023/07/08 04:23:31;;;;;;;11.77;6.88;;;;;;;16.42;100.00;95997.25;5032936;28;24436;-77
2023/07/08 04:25:58;;;;;;;13.35;6.72;;;;;;;16.57;100.00;95995.16;5033869;28;24443;-77
2023/07/08 04:28:24;;;;;;;12.68;6.95;;;;;;;16.75;100.00;95996.25;5032260;28;24435;-77
2023/07/08 04:30:51;;;;;;;8.73;7.27;;;;;;;16.86;100.00;96003.22;5027900;28;24436;-77
2023/07/08 04:33:19;;;;;;;10.07;7.10;;;;;;;16.86;100.00;96005.81;5031551;28;24458;-77
2023/07/08 04:35:46;;;;;;;12.13;7.07;;;;;;;16.97;100.00;96015.38;5028864;28;24443;-78
2023/07/08 04:38:17;;;;;;;8.35;6.72;;;;;;;16.89;97.88;96008.19;5025756;28;24420;-78
2023/07/08 04:40:43;;;;;;;11.57;7.38;;;;;;;16.92;97.12;96007.94;5031528;28;24440;-78
2023/07/08 04:43:11;;;;;;;10.05;7.35;;;;;;;17.04;96.49;96000.84;5030708;28;24439;-78
2023/07/08 04:45:38;;;;;;;9.13;7.00;;;;;;;16.78;97.11;96009.09;5023105;28;24475;-78
2023/07/08 04:48:12;;;;;;;10.68;7.00;;;;;;;16.98;96.12;96032.75;5026899;28;24562;-78
2023/07/08 04:50:41;;;;;;;12.43;7.53;;;;;;;17.07;95.68;96024.13;5025756;28;24443;-78
2023/07/08 04:53:07;;;;;;;14.68;7.20;;;;;;;17.27;94.84;96028.47;5024832;28;24538;-77
2023/07/08 04:55:34;;;;;;;7.78;6.65;;;;;;;17.28;94.02;96032.78;5028889;28;24435;-77
2023/07/08 04:58:01;;;;;;;9.80;7.07;;;;;;;17.41;91.07;96038.59;5025941;28;24795;-77
2023/07/08 05:00:28;;;;;;;9.52;7.22;;;;;;;17.47;88.21;96037.25;5030918;28;24436;-77
2023/07/08 05:02:55;;;;;;;9.53;7.27;;;;;;;17.72;87.04;96040.34;5027521;28;24425;-78
2023/07/08 05:05:21;;;;;;;12.45;7.70;;;;;;;17.96;83.53;96035.63;5021962;28;24451;-77
2023/07/08 05:07:50;;;;;;;11.20;7.28;;;;;;;18.08;82.05;96038.97;5026677;28;24439;-77
2023/07/08 05:10:16;;;;;;;13.00;7.33;;;;;;;18.24;81.55;96041.03;5025038;28;24584;-78
2023/07/08 05:12:43;;;;;;;9.57;7.10;;;;;;;18.31;81.99;96050.00;5024361;28;24922;-79
2023/07/08 05:15:10;;;;;;;10.32;6.93;;;;;;;18.51;82.05;96043.81;5021993;28;24440;-78
2023/07/08 05:17:39;;;;;;;10.47;7.13;;;;;;;18.74;80.39;96047.00;5025640;28;24439;-77
2023/07/08 05:20:07;;;;;;;15.38;7.60;;;;;;;18.73;77.21;96049.78;5019110;28;24435;-78
2023/07/08 05:22:34;;;;;;;10.63;7.45;;;;;;;18.87;76.01;96044.09;5017592;28;24431;-78
2023/07/08 05:25:02;;;;;;;10.95;7.00;;;;;;;18.93;74.74;96042.72;5021234;28;24439;-77
2023/07/08 05:27:29;;;;;;;11.18;7.43;;;;;;;19.14;71.69;96048.59;5022449;28;24437;-78
2023/07/08 05:29:56;;;;;;;11.77;8.40;;;;;;;19.07;78.05;96058.84;5028441;28;24539;-78
2023/07/08 05:32:22;;;;;;;10.20;7.97;;;;;;;18.96;76.75;96064.25;5021724;28;24443;-78
2023/07/08 05:34:49;;;;;;;10.55;7.55;;;;;;;19.17;77.39;96065.84;5025737;28;24861;-77
2023/07/08 05:37:18;;;;;;;14.45;7.63;;;;;;;19.25;76.05;96064.19;5017462;28;25055;-78
2023/07/08 05:39:45;;;;;;;12.93;7.13;;;;;;;19.29;75.51;96068.19;5026073;28;25023;-78
2023/07/08 05:42:12;;;;;;;9.93;7.35;;;;;;;19.23;76.59;96060.88;5027263;28;24433;-78
2023/07/08 05:44:39;;;;;;;11.95;8.10;;;;;;;19.06;77.11;96053.75;5027334;28;24439;-78
2023/07/08 05:47:05;;;;;;;8.10;7.20;;;;;;;19.07;77.75;96044.88;5021338;28;24845;-78
2023/07/08 05:49:32;;;;;;;9.73;7.50;;;;;;;18.91;80.62;96042.84;5028210;28;24969;-78
2023/07/08 05:51:59;;;;;;;9.18;7.22;;;;;;;18.95;80.92;96052.09;5025946;28;24467;-78
2023/07/08 05:54:25;;;;;;;9.10;7.33;;;;;;;18.96;81.92;96048.50;5020756;28;24510;-78
2023/07/08 05:56:51;;;;;;;11.60;7.55;;;;;;;18.86;82.65;96052.94;5026701;28;24432;-78
2023/07/08 05:59:19;;;;;;;9.18;7.75;;;;;;;19.01;82.12;96053.31;5023982;28;24469;-78
2023/07/08 06:01:46;;;;;;;8.57;7.07;;;;;;;19.06;81.97;96044.06;5030648;28;24436;-78
2023/07/08 06:04:12;;;;;;;9.85;7.28;;;;;;;19.33;80.89;96047.72;5021027;28;24432;-78
2023/07/08 06:06:38;;;;;;;11.00;7.03;;;;;;;19.50;80.08;96044.31;5017899;28;24999;-79
2023/07/08 06:09:05;;;;;;;8.52;6.90;;;;;;;19.88;78.09;96042.53;5021853;28;24857;-78
2023/07/08 06:11:31;;;;;;;13.43;7.30;;;;;;;20.21;75.58;96050.75;5023342;28;25000;-78
2023/07/08 06:13:58;;;;;;;9.37;6.80;;;;;;;20.41;72.04;96054.91;5026390;28;25019;-78
2023/07/08 06:16:26;;;;;;;10.32;6.72;;;;;;;20.46;71.95;96065.78;5025089;28;24467;-78
2023/07/08 06:18:53;;;;;;;9.60;6.50;;;;;;;20.54;71.34;96054.53;5028996;28;24430;-79
2023/07/08 06:21:19;;;;;;;10.40;6.30;;;;;;;20.64;70.89;96063.19;5022970;28;24428;-78
2023/07/08 06:23:45;;;;;;;9.90;6.27;;;;;;;20.70;70.93;96061.78;5023115;28;24493;-77
2023/07/08 06:26:12;;;;;;;8.77;5.97;;;;;;;20.83;69.15;96070.09;5025450;28;24438;-78
2023/07/08 06:28:38;;;;;;;11.85;6.80;;;;;;;21.00;68.57;96063.16;5021366;28;24435;-78
2023/07/08 06:31:05;;;;;;;9.65;6.13;;;;;;;21.10;68.65;96081.50;5015604;28;24425;-78
2023/07/08 06:33:32;;;;;;;11.38;6.60;;;;;;;21.32;68.30;96083.66;5025945;28;24837;-78
2023/07/08 06:35:59;;;;;;;8.73;6.63;;;;;;;21.52;74.48;96081.63;5023426;28;24471;-78
2023/07/08 06:38:25;;;;;;;8.63;6.10;;;;;;;21.72;72.54;96088.31;5024763;28;24447;-79
2023/07/08 06:40:52;;;;;;;9.63;5.95;;;;;;;21.87;74.61;96085.91;5017139;28;24441;-78
2023/07/08 06:43:18;;;;;;;9.77;6.00;;;;;;;21.96;75.07;96089.44;5025851;28;24474;-78
2023/07/08 06:45:45;;;;;;;7.95;5.63;;;;;;;22.08;76.32;96089.97;5022695;28;24437;-80
2023/07/08 06:48:11;;;;;;;8.75;5.55;;;;;;;21.87;70.27;96099.09;5027204;28;24478;-78
2023/07/08 06:50:43;;;;;;;9.43;5.40;;;;;;;21.91;75.22;96095.16;5025614;28;24507;-77
2023/07/08 06:53:09;;;;;;;11.77;6.05;;;;;;;21.87;75.37;96096.47;5020899;28;24538;-78
2023/07/08 06:55:36;;;;;;;24.73;7.35;;;;;;;21.90;76.37;96104.06;5028230;28;24452;-79
2023/07/08 06:58:02;;;;;;;8.50;5.50;;;;;;;21.92;70.85;96096.00;5019245;28;24996;-78
2023/07/08 07:00:29;;;;;;;8.38;5.53;;;;;;;21.97;67.76;96101.63;5027332;28;24435;-78
2023/07/08 07:02:55;;;;;;;7.15;4.30;;;;;;;22.08;67.77;96096.06;5026464;28;24440;-78
2023/07/08 07:05:22;;;;;;;6.32;4.13;;;;;;;22.14;66.97;96098.09;5029418;28;24443;-79
2023/07/08 07:07:49;;;;;;;6.47;4.00;;;;;;;22.23;66.45;96101.59;5023192;28;24522;-79
2023/07/08 07:10:16;;;;;;;8.20;4.03;;;;;;;22.30;65.90;96101.78;5017480;28;24814;-79
2023/07/08 07:12:42;;;;;;;7.63;3.85;;;;;;;22.38;66.46;96105.25;5025082;28;24439;-78
2023/07/08 07:15:09;;;;;;;7.00;4.25;;;;;;;22.43;66.02;96107.41;5023410;28;24459;-79
2023/07/08 07:17:36;;;;;;;5.13;3.90;;;;;;;22.44;65.85;96103.78;5030104;28;24436;-79
2023/07/08 07:20:03;;;;;;;5.82;4.32;;;;;;;22.45;65.42;96100.97;5025414;28;24692;-78
2023/07/08 07:22:29;;;;;;;5.28;3.97;;;;;;;22.54;64.98;96098.34;5017422;28;24454;-79
2023/07/08 07:24:57;;;;;;;5.78;3.60;;;;;;;22.94;67.81;96105.53;5021040;28;24486;-79
2023/07/08 07:27:23;;;;;;;6.00;3.80;;;;;;;23.16;65.37;96117.25;5017331;28;24435;-79
2023/07/08 07:29:51;;;;;;;6.32;3.60;;;;;;;23.22;64.47;96115.78;5024635;28;24435;-78
2023/07/08 07:32:19;;;;;;;5.20;3.30;;;;;;;23.29;63.23;96107.00;5017236;28;24522;-79
2023/07/08 07:34:47;;;;;;;4.32;3.22;;;;;;;23.25;60.64;96084.56;5027847;28;24459;-79
2023/07/08 07:37:15;;;;;;;14.30;3.47;;;;;;;23.19;60.51;96091.31;5025732;28;24432;-79
2023/07/08 07:39:42;;;;;;;6.75;3.47;;;;;;;23.33;62.96;96094.28;5029663;28;24455;-79
2023/07/08 07:42:11;;;;;;;5.17;3.20;;;;;;;23.46;59.11;96099.88;5022294;28;24486;-79
2023/07/08 07:44:39;;;;;;;5.68;3.30;;;;;;;23.64;59.59;96097.03;5034492;28;24522;-78
2023/07/08 07:47:06;;;;;;;7.15;3.03;;;;;;;23.67;60.19;96094.91;5030646;28;24444;-77
2023/07/08 07:49:32;;;;;;;5.90;3.03;;;;;;;23.63;60.27;96096.19;5029739;28;24435;-78
2023/07/08 07:51:59;;;;;;;4.85;3.10;;;;;;;23.58;59.83;96101.19;5030130;28;24432;-79
2023/07/08 07:54:26;;;;;;;7.00;3.30;;;;;;;23.56;59.30;96097.06;5032105;28;24463;-79
2023/07/08 07:56:52;;;;;;;4.70;3.10;;;;;;;23.78;59.66;96096.34;5030659;28;24432;-78
2023/07/08 07:59:20;;;;;;;3.88;3.13;;;;;;;24.28;59.64;96100.44;5026183;28;24445;-78
2023/07/08 08:01:47;;;;;;;5.28;3.13;;;;;;;24.82;58.82;96092.53;5031161;28;24419;-78
2023/07/08 08:04:13;;;;;;;5.18;3.05;;;;;;;25.11;53.37;96093.66;5026138;28;24451;-79
2023/07/08 08:06:40;;;;;;;6.18;3.22;;;;;;;25.58;56.00;96098.66;5031205;28;24436;-79
2023/07/08 08:09:07;;;;;;;4.53;2.80;;;;;;;25.58;50.76;96101.31;5027152;28;24826;-78
2023/07/08 08:11:34;;;;;;;4.03;2.90;;;;;;;25.69;49.39;96097.38;5028520;28;24434;-79
2023/07/08 08:14:01;;;;;;;4.03;3.00;;;;;;;25.71;48.51;96100.69;5029961;28;24455;-79
2023/07/08 08:16:28;;;;;;;7.03;2.93;;;;;;;25.58;48.83;96096.00;5022931;28;24442;-78
2023/07/08 08:18:55;;;;;;;4.38;3.10;;;;;;;25.79;49.39;96097.16;5031810;28;24427;-80
2023/07/08 08:21:21;;;;;;;6.07;3.03;;;;;;;25.65;47.85;96096.13;5020806;28;24444;-80
2023/07/08 08:23:48;;;;;;;6.13;2.88;;;;;;;25.86;47.93;96100.72;5025789;28;24961;-79
2023/07/08 08:26:14;;;;;;;6.70;3.50;;;;;;;25.84;47.62;96097.44;5025277;28;24440;-79
2023/07/08 08:28:41;;;;;;;9.32;3.35;;;;;;;25.78;48.83;96095.50;5031282;28;24444;-76
2023/07/08 08:31:07;;;;;;;7.73;3.00;;;;;;;26.15;47.93;96088.47;5025127;28;24436;-76
2023/07/08 08:33:35;;;;;;;10.45;3.50;;;;;;;26.35;50.52;96086.03;5026744;28;24790;-77
2023/07/08 08:36:01;;;;;;;5.20;2.88;;;;;;;26.45;46.18;96098.00;5028735;28;24439;-77
2023/07/08 08:38:28;;;;;;;3.80;2.80;;;;;;;27.02;46.78;96096.34;5024782;28;24440;-77
2023/07/08 08:40:54;;;;;;;6.60;3.08;;;;;;;27.14;43.55;96094.84;5028112;28;24489;-77
2023/07/08 08:43:24;;;;;;;7.60;3.05;;;;;;;27.54;46.03;96091.66;5027443;28;24789;-77
2023/07/08 08:46:09;;;;;;;8.70;2.90;;;;;;;27.92;43.78;96095.63;5023138;28;24521;-77
2023/07/08 08:48:44;;;;;;;4.35;2.85;;;;;;;27.93;41.60;96093.78;5023568;28;24432;-77
2023/07/08 08:51:15;;;;;;;5.68;2.90;;;;;;;27.86;40.33;96087.59;5024446;28;24432;-77
2023/07/08 08:53:41;;;;;;;6.40;2.80;;;;;;;28.11;43.15;96094.09;5025012;28;24435;-77
2023/07/08 08:56:15;;;;;;;4.63;2.70;;;;;;;28.08;41.17;96099.00;5024958;28;24436;-76
2023/07/08 08:58:46;;;;;;;4.75;2.58;;;;;;;28.22;40.16;96098.03;5025859;28;24447;-76
2023/07/08 09:01:15;;;;;;;5.47;2.83;;;;;;;27.98;38.87;96099.34;5025852;28;24428;-77
2023/07/08 09:03:49;;;;;;;7.30;3.30;;;;;;;27.71;41.74;96101.00;5031428;28;24829;-76
2023/07/08 09:06:21;;;;;;;6.57;3.37;;;;;;;27.53;42.89;96106.00;5015397;28;24440;-77
2023/07/08 09:08:49;;;;;;;6.10;3.25;;;;;;;27.09;43.94;96115.03;5030382;28;24961;-77
2023/07/08 09:11:41;;;;;;;5.30;2.90;;;;;;;26.85;45.39;96110.91;5016966;28;24439;-76
2023/07/08 09:14:15;;;;;;;4.97;2.78;;;;;;;26.65;46.36;96116.00;5025620;28;24444;-77
2023/07/08 09:16:48;;;;;;;11.95;3.17;;;;;;;26.82;46.42;96120.09;5018505;28;24440;-77
2023/07/08 09:19:23;;;;;;;6.35;2.95;;;;;;;26.66;46.66;96115.00;5024186;28;24455;-76
2023/07/08 09:21:58;;;;;;;8.45;2.92;;;;;;;26.44;45.94;96114.09;5020311;28;24439;-77
2023/07/08 09:24:30;;;;;;;4.47;2.88;;;;;;;26.87;45.28;96112.34;5024026;28;24432;-76
2023/07/08 09:27:00;;;;;;;5.85;3.17;;;;;;;27.27;44.93;96105.59;5014900;28;24425;-75
2023/07/08 09:29:27;;;;;;;5.28;3.05;;;;;;;27.43;43.73;96103.66;5024800;28;24438;-75
2023/07/08 09:31:54;;;;;;;5.53;2.70;;;;;;;27.90;43.75;96107.50;5019673;28;24830;-77
2023/07/08 09:34:24;;;;;;;4.77;2.60;;;;;;;28.33;41.35;96105.47;5030608;28;24529;-76
2023/07/08 09:36:52;;;;;;;4.95;2.75;;;;;;;28.31;39.45;96106.66;5020921;28;24436;-76
2023/07/08 09:39:20;;;;;;;5.57;2.90;;;;;;;28.07;40.28;96105.31;5027311;28;25088;-77
2023/07/08 09:41:48;;;;;;;4.13;2.65;;;;;;;28.13;40.41;96094.69;5029223;28;24965;-75
2023/07/08 09:44:19;;;;;;;5.50;2.38;;;;;;;28.80;40.21;96094.94;5028829;28;24512;-76
2023/07/08 09:46:45;;;;;;;6.05;2.70;;;;;;;29.30;40.20;96096.25;5020970;28;24451;-76
2023/07/08 09:49:23;;;;;;;9.80;3.30;;;;;;;29.43;38.94;96096.25;5026291;28;24433;-77
2023/07/08 09:51:51;;;;;;;5.90;3.17;;;;;;;29.09;38.09;96097.28;5030919;28;24451;-77
2023/07/08 09:54:18;;;;;;;7.68;2.85;;;;;;;28.70;39.41;96098.00;5020900;28;24463;-77
2023/07/08 09:56:53;;;;;;;5.13;3.00;;;;;;;28.84;38.39;96091.66;5026893;28;24440;-76
2023/07/08 09:59:24;;;;;;;4.22;2.80;;;;;;;28.81;37.85;96085.91;5022246;28;24436;-77
2023/07/08 10:01:51;;;;;;;7.57;2.57;;;;;;;28.93;37.25;96094.97;5028001;28;24432;-77
2023/07/08 10:04:20;;;;;;;5.32;2.72;;;;;;;29.14;36.98;96099.31;5020526;28;24481;-77
2023/07/08 10:06:48;;;;;;;6.28;2.75;;;;;;;29.13;36.39;96095.00;5025607;28;24945;-77
2023/07/08 10:09:24;;;;;;;6.97;2.72;;;;;;;29.03;36.71;96095.41;5024266;28;22348;-77
2023/07/08 10:11:55;;;;;;;4.45;2.67;;;;;;;29.72;37.88;96096.84;5020104;28;24920;-77
2023/07/08 10:14:27;;;;;;;4.10;2.88;;;;;;;30.30;38.67;96096.13;5024046;28;24456;-76
2023/07/08 10:16:54;;;;;;;5.28;2.90;;;;;;;30.14;36.93;96097.34;5029832;28;25107;-76
2023/07/08 10:19:22;;;;;;;6.95;3.20;;;;;;;30.47;34.82;96097.25;5026952;28;25046;-77
2023/07/08 10:21:58;;;;;;;4.70;2.80;;;;;;;30.49;34.52;96099.72;5014039;28;24436;-76
2023/07/08 10:24:38;;;;;;;4.30;2.70;;;;;;;30.68;35.07;96103.31;5029813;28;24885;-78
2023/07/08 10:27:13;;;;;;;4.82;2.80;;;;;;;30.72;34.23;96102.69;5014320;28;24440;-76
2023/07/08 10:29:51;;;;;;;3.80;2.73;;;;;;;30.74;34.28;96100.66;5020162;28;24438;-77
2023/07/08 10:32:29;;;;;;;4.43;2.80;;;;;;;29.82;35.64;96097.25;5016711;28;24977;-77
2023/07/08 10:35:05;;;;;;;3.95;2.72;;;;;;;30.26;34.42;96094.88;5024620;28;24494;-77
2023/07/08 10:37:43;;;;;;;6.35;2.80;;;;;;;30.17;35.79;96096.16;5023490;28;24521;-76
2023/07/08 10:40:25;;;;;;;5.82;3.05;;;;;;;30.47;34.09;96091.09;5022955;28;24448;-76
2023/07/08 10:43:04;;;;;;;6.70;2.95;;;;;;;29.56;34.87;96100.75;5021224;28;24439;-76
2023/07/08 10:45:39;;;;;;;5.20;2.80;;;;;;;29.96;36.41;96091.88;5023086;28;24535;-77
2023/07/08 10:48:24;;;;;;;4.53;2.80;;;;;;;30.68;34.32;96098.78;5023686;28;24438;-77
2023/07/08 10:51:02;;;;;;;6.35;3.05;;;;;;;30.53;34.02;96099.09;5022494;28;24436;-77
2023/07/08 10:53:44;;;;;;;4.60;3.00;;;;;;;30.69;35.62;96096.94;5022493;28;25048;-77
2023/07/08 10:56:16;;;;;;;6.93;2.80;;;;;;;31.13;36.42;96101.41;5022743;28;24547;-77
2023/07/08 10:59:13;;;;;;;4.97;2.90;;;;;;;30.98;33.29;96098.22;5031035;28;24438;-76
2023/07/08 11:01:52;;;;;;;4.78;2.95;;;;;;;31.27;33.27;96097.59;5014810;28;24976;-76
2023/07/08 11:04:41;;;;;;;6.55;3.22;;;;;;;31.18;33.20;96106.09;5022574;28;24439;-77
2023/07/08 11:07:17;;;;;;;5.50;2.45;;;;;;;31.19;34.14;96097.06;5024365;28;24435;-76
2023/07/08 11:09:49;;;;;;;5.00;2.75;;;;;;;31.42;35.00;96097.31;5024728;28;24557;-76
2023/07/08 11:12:24;;;;;;;10.25;2.88;;;;;;;31.50;34.03;96091.66;5021979;28;24439;-76
2023/07/08 11:14:57;;;;;;;4.43;2.85;;;;;;;31.03;32.85;96085.00;5021394;28;24452;-76
2023/07/08 11:17:28;;;;;;;8.50;2.90;;;;;;;30.61;35.36;96092.66;5027945;28;24443;-76
2023/07/08 11:20:01;;;;;;;7.25;2.85;;;;;;;30.76;34.20;96095.06;5018835;28;24443;-76
2023/07/08 11:22:29;;;;;;;3.50;2.67;;;;;;;31.43;32.99;96092.75;5021708;28;24977;-76
2023/07/08 11:25:00;;;;;;;2.75;2.25;;;;;;;31.06;32.53;96096.09;5023562;28;25005;-76
2023/07/08 11:27:31;;;;;;;3.97;2.55;;;;;;;30.54;33.20;96097.22;5023394;28;24443;-76
2023/07/08 11:30:02;;;;;;;5.70;3.03;;;;;;;30.33;33.61;96090.31;5023125;28;24480;-77
2023/07/08 11:32:31;;;;;;;5.65;2.97;;;;;;;30.35;34.45;96089.09;5022756;28;25090;-76
2023/07/08 11:35:00;;;;;;;3.92;2.83;;;;;;;30.61;33.11;96085.47;5025013;28;24452;-77
2023/07/08 11:37:27;;;;;;;3.43;2.60;;;;;;;30.94;34.06;96095.16;5029946;28;24444;-77